Time;durP1;ratioP1;P1;durP2;ratioP2;P2;SDS_P1;SDS_P2;PMS_P1;PMS_P2;Temp;Humidity;BMP_temperature;BMP_pressure;BME280_temperature;BME280_humidity;BME280_pressure;Samples;Min_cycle;Max_cycle;Signal;HPM_P1;HPM_P2
2023/01/30 00:01:25;;;;;;;18.90;12.10;;;;;;;2.89;89.08;100678.66;106402;1260;71834;-77
2023/01/30 00:03:53;;;;;;;20.70;13.40;;;;;;;2.89;89.22;100674.95;106746;1257;71554;-78
2023/01/30 00:06:20;;;;;;;20.30;12.50;;;;;;;2.88;89.04;100662.29;106816;1259;61418;-77
2023/01/30 00:08:47;;;;;;;20.40;12.30;;;;;;;2.87;88.73;100642.99;106945;1258;61096;-75
2023/01/30 00:11:16;;;;;;;20.10;12.90;;;;;;;2.90;88.79;100622.33;106975;1258;73864;-76
2023/01/30 00:13:42;;;;;;;22.00;13.70;;;;;;;2.89;88.56;100604.42;106641;1259;71278;-77
2023/01/30 00:16:10;;;;;;;19.50;12.80;;;;;;;2.90;88.99;100613.03;106822;1258;71716;-76
2023/01/30 00:18:39;;;;;;;21.50;13.60;;;;;;;2.92;88.80;100616.86;106525;1259;62239;-76
2023/01/30 00:21:08;;;;;;;22.00;14.00;;;;;;;2.94;88.80;100610.45;106348;1263;61263;-77
2023/01/30 00:23:36;;;;;;;20.50;13.10;;;;;;;2.94;88.58;100610.97;106655;1264;75863;-77
2023/01/30 00:26:05;;;;;;;20.80;13.60;;;;;;;2.94;88.53;100616.89;106628;1259;70962;-78
2023/01/30 00:28:32;;;;;;;22.50;13.40;;;;;;;2.89;88.75;100628.81;107043;1259;70181;-76
2023/01/30 00:30:59;;;;;;;19.50;12.20;;;;;;;2.88;88.97;100634.83;106281;1260;61734;-77
2023/01/30 00:33:26;;;;;;;21.90;14.00;;;;;;;2.87;89.09;100625.32;106596;1258;61165;-76
2023/01/30 00:35:55;;;;;;;21.60;13.90;;;;;;;2.86;89.01;100618.53;107015;1259;74311;-77
2023/01/30 00:38:23;;;;;;;22.90;13.80;;;;;;;2.88;89.11;100624.20;106437;1259;68746;-76
2023/01/30 00:40:50;;;;;;;20.20;12.90;;;;;;;2.88;89.17;100627.31;107015;1258;73637;-77
2023/01/30 00:49:24;;;;;;;21.40;13.50;;;;;;;2.98;88.99;100604.63;108788;1258;73554;-76
2023/01/30 00:51:51;;;;;;;24.00;14.00;;;;;;;3.03;89.36;100594.15;108757;1259;71151;-76
2023/01/30 00:54:18;;;;;;;22.30;13.80;;;;;;;3.04;90.00;100581.97;108728;1258;72544;-76
2023/01/30 00:56:45;;;;;;;22.50;14.20;;;;;;;3.07;90.07;100578.23;108676;1261;59647;-76
2023/01/30 00:59:12;;;;;;;21.40;12.90;;;;;;;3.08;90.27;100582.40;108715;1259;59217;-76
2023/01/30 01:01:39;;;;;;;21.70;13.70;;;;;;;3.10;90.38;100573.29;108650;1259;75446;-76
2023/01/30 01:04:09;;;;;;;20.20;12.80;;;;;;;3.12;90.55;100563.86;108555;1259;71201;-76
2023/01/30 01:06:37;;;;;;;22.60;13.90;;;;;;;3.12;90.67;100558.23;106272;1260;72490;-76
2023/01/30 01:09:05;;;;;;;23.80;14.50;;;;;;;3.12;91.31;100562.77;106353;1259;62082;-77
2023/01/30 01:11:33;;;;;;;22.10;14.80;;;;;;;3.12;91.67;100556.48;106756;1259;61401;-76
2023/01/30 01:14:01;;;;;;;21.00;13.00;;;;;;;3.09;92.16;100560.96;106825;1258;74697;-76
2023/01/30 01:16:41;;;;;;;23.40;14.40;;;;;;;3.06;93.20;100551.42;106450;1258;70892;-77
2023/01/30 01:19:08;;;;;;;25.60;16.10;;;;;;;3.02;93.74;100556.27;106401;1260;74178;-76
2023/01/30 01:21:35;;;;;;;23.30;13.90;;;;;;;2.99;93.82;100542.55;106606;1260;62040;-77
2023/01/30 01:24:02;;;;;;;23.50;15.20;;;;;;;2.92;93.72;100520.11;106244;1259;61728;-76
2023/01/30 01:26:29;;;;;;;23.10;14.00;;;;;;;2.97;93.64;100517.37;106165;1260;73788;-76
2023/01/30 01:28:57;;;;;;;21.70;13.80;;;;;;;2.97;93.71;100509.52;106672;1259;71211;-77
2023/01/30 01:31:24;;;;;;;25.70;16.50;;;;;;;2.99;93.93;100505.20;106794;1258;71601;-76
2023/01/30 01:33:52;;;;;;;23.80;14.70;;;;;;;2.98;94.31;100499.87;106521;1262;61282;-76
2023/01/30 01:36:19;;;;;;;24.50;14.80;;;;;;;2.98;94.37;100501.10;106438;1259;61151;-77
2023/01/30 01:39:05;;;;;;;24.90;15.50;;;;;;;2.96;95.02;100494.06;106473;1262;77229;-75
2023/01/30 01:41:32;;;;;;;26.00;16.10;;;;;;;2.95;95.52;100463.61;106246;1259;72289;-76
2023/01/30 01:44:09;;;;;;;27.20;17.00;;;;;;;2.93;96.03;100452.26;106387;1258;71649;-76
2023/01/30 01:46:50;;;;;;;22.90;14.80;;;;;;;2.92;96.70;100448.17;107296;1259;59384;-76
2023/01/30 01:49:17;;;;;;;30.10;18.00;;;;;;;2.92;96.91;100437.83;106878;1259;61648;-75
2023/01/30 01:51:53;;;;;;;26.50;16.80;;;;;;;2.92;97.09;100439.55;106583;1260;73460;-76
2023/01/30 01:54:49;;;;;;;26.10;15.80;;;;;;;2.95;97.15;100423.12;106502;1259;69440;-76
2023/01/30 01:57:25;;;;;;;27.20;16.20;;;;;;;2.96;97.23;100423.90;106541;1259;72374;-78
2023/01/30 02:00:04;;;;;;;24.10;15.50;;;;;;;2.98;97.18;100424.23;106500;1259;61266;-76
2023/01/30 02:02:33;;;;;;;23.30;14.70;;;;;;;2.99;97.12;100418.66;106393;1259;60414;-77
2023/01/30 02:05:01;;;;;;;23.00;15.00;;;;;;;3.02;97.13;100414.63;106540;1260;74458;-76
2023/01/30 02:07:42;;;;;;;24.30;14.60;;;;;;;3.04;96.97;100420.18;106510;1259;70242;-76
2023/01/30 02:10:14;;;;;;;19.50;12.00;;;;;;;3.06;96.94;100413.37;106565;1259;73910;-75
2023/01/30 02:12:42;;;;;;;19.70;12.30;;;;;;;3.10;96.70;100405.51;106374;1259;61253;-78
2023/01/30 02:15:10;;;;;;;19.00;12.80;;;;;;;3.14;96.59;100414.64;106483;1262;61693;-78
2023/01/30 02:17:37;;;;;;;19.20;11.90;;;;;;;3.16;96.30;100411.13;106605;1262;73154;-76
2023/01/30 02:20:20;;;;;;;17.90;11.40;;;;;;;3.20;96.24;100408.88;106860;1259;71381;-77
2023/01/30 02:23:16;;;;;;;18.40;12.30;;;;;;;3.24;96.37;100395.17;106662;1259;73547;-77
2023/01/30 02:25:55;;;;;;;17.60;12.00;;;;;;;3.30;96.06;100393.54;106253;1259;61292;-77
2023/01/30 02:28:38;;;;;;;19.20;12.30;;;;;;;3.35;96.14;100389.38;106528;1262;61244;-75
2023/01/30 02:31:31;;;;;;;17.10;11.50;;;;;;;3.39;96.43;100392.36;106790;1258;74432;-76
2023/01/30 02:34:24;;;;;;;17.00;10.70;;;;;;;3.43;96.36;100385.01;106395;1262;70132;-76
2023/01/30 02:37:04;;;;;;;18.30;12.10;;;;;;;3.48;96.06;100373.19;106198;1262;72009;-76
2023/01/30 02:40:01;;;;;;;18.90;13.20;;;;;;;3.52;95.93;100369.50;106450;1260;63821;-76
2023/01/30 02:43:05;;;;;;;18.30;11.90;;;;;;;3.56;96.00;100361.79;106752;1259;61173;-77
2023/01/30 02:45:41;;;;;;;18.30;12.10;;;;;;;3.60;95.84;100361.41;106620;1259;74252;-78
2023/01/30 02:48:17;;;;;;;20.10;12.60;;;;;;;3.61;95.86;100363.13;106438;1259;71719;-77
2023/01/30 02:50:50;;;;;;;19.90;12.80;;;;;;;3.65;95.83;100344.73;106518;1259;70180;-76
2023/01/30 02:53:17;;;;;;;18.70;12.20;;;;;;;3.64;95.94;100343.19;106242;1259;61286;-78
2023/01/30 02:55:45;;;;;;;21.10;13.70;;;;;;;3.67;95.85;100334.55;106462;1262;61164;-77
2023/01/30 02:58:13;;;;;;;20.30;13.80;;;;;;;3.69;95.91;100332.64;106594;1258;73198;-77
2023/01/30 03:00:43;;;;;;;21.10;12.30;;;;;;;3.71;95.95;100337.91;106793;1259;69260;-76
2023/01/30 03:03:34;;;;;;;19.70;13.60;;;;;;;3.75;96.19;100328.46;106682;1259;72598;-77
2023/01/30 03:06:25;;;;;;;19.40;13.30;;;;;;;3.79;96.10;100322.10;107085;1258;61226;-76
2023/01/30 03:09:11;;;;;;;17.80;11.90;;;;;;;3.84;95.96;100314.33;107247;1259;60390;-77
2023/01/30 03:11:53;;;;;;;21.00;13.10;;;;;;;3.87;95.83;100313.02;107256;1259;72534;-77
2023/01/30 03:14:33;;;;;;;22.00;14.30;;;;;;;3.88;95.91;100314.08;107106;1259;68750;-76
2023/01/30 03:17:03;;;;;;;20.60;12.60;;;;;;;3.92;95.95;100297.32;106402;1259;71151;-77
2023/01/30 03:19:30;;;;;;;21.30;13.70;;;;;;;3.93;96.34;100295.87;106959;1258;62934;-78
2023/01/30 03:21:57;;;;;;;21.50;13.30;;;;;;;3.97;95.97;100299.11;106871;1258;61220;-76
2023/01/30 03:24:25;;;;;;;22.00;14.90;;;;;;;4.00;95.98;100290.42;106795;1260;74597;-76
2023/01/30 03:27:03;;;;;;;20.80;13.70;;;;;;;4.02;96.15;100288.83;106748;1260;71178;-77
2023/01/30 03:29:29;;;;;;;23.70;13.80;;;;;;;4.03;96.53;100283.19;107540;1259;73933;-77
2023/01/30 03:31:56;;;;;;;23.70;14.70;;;;;;;4.04;97.64;100286.95;106985;1259;61260;-77
2023/01/30 03:34:23;;;;;;;23.90;14.20;;;;;;;4.00;98.77;100286.10;106684;1260;61337;-78
2023/01/30 03:36:50;;;;;;;24.10;15.60;;;;;;;3.96;99.78;100275.05;106727;1259;73159;-76
2023/01/30 03:39:18;;;;;;;25.70;16.30;;;;;;;3.90;100.00;100268.48;107376;1259;70263;-78
2023/01/30 03:41:45;;;;;;;24.40;14.50;;;;;;;3.87;100.00;100271.91;106483;1259;71358;-78
2023/01/30 03:44:12;;;;;;;25.20;16.20;;;;;;;3.86;100.00;100271.27;106375;1262;61231;-78
2023/01/30 03:46:39;;;;;;;25.60;15.70;;;;;;;3.84;100.00;100267.14;106589;1258;421938;-80
2023/01/30 03:49:07;;;;;;;26.90;16.20;;;;;;;3.82;100.00;100262.36;108683;1258;72819;-80
2023/01/30 03:51:33;;;;;;;24.00;15.50;;;;;;;3.81;100.00;100260.73;108411;1259;71386;-80
2023/01/30 03:54:01;;;;;;;25.60;15.90;;;;;;;3.81;100.00;100247.25;106975;1259;72684;-78
2023/01/30 03:56:33;;;;;;;26.10;16.90;;;;;;;3.81;100.00;100248.83;108151;1259;61248;-80
2023/01/30 03:59:00;;;;;;;25.10;15.50;;;;;;;3.82;100.00;100253.66;108095;1258;61273;-79
2023/01/30 04:01:27;;;;;;;26.90;16.30;;;;;;;3.84;100.00;100234.38;108126;1265;74352;-79
2023/01/30 04:03:54;;;;;;;22.20;13.80;;;;;;;3.84;100.00;100234.52;108070;1259;71083;-80
2023/01/30 04:06:24;;;;;;;22.50;13.80;;;;;;;3.85;100.00;100235.18;107459;1259;72738;-77
2023/01/30 04:08:56;;;;;;;24.80;15.40;;;;;;;3.85;100.00;100225.73;106717;1258;61353;-82
2023/01/30 04:11:29;;;;;;;22.10;14.10;;;;;;;3.87;100.00;100224.64;107068;1258;61659;-78
2023/01/30 04:13:56;;;;;;;22.80;14.40;;;;;;;3.88;100.00;100221.77;106987;1259;75508;-79
2023/01/30 04:16:25;;;;;;;19.50;12.00;;;;;;;3.89;100.00;100229.42;106878;1259;70941;-78
2023/01/30 04:18:52;;;;;;;20.60;13.50;;;;;;;3.92;100.00;100209.99;106791;1263;73832;-80
2023/01/30 04:21:24;;;;;;;22.70;13.90;;;;;;;3.98;100.00;100224.04;106968;1258;61288;-77
2023/01/30 04:23:56;;;;;;;24.70;15.10;;;;;;;4.01;100.00;100215.27;106687;1259;62328;-79
2023/01/30 04:26:23;;;;;;;24.90;14.30;;;;;;;4.03;100.00;100216.65;106593;1261;75694;-81
2023/01/30 04:28:55;;;;;;;22.80;14.90;;;;;;;4.03;100.00;100213.52;107163;1261;71039;-83
2023/01/30 04:31:23;;;;;;;24.50;14.60;;;;;;;4.02;100.00;100212.94;107242;1259;71941;-83
2023/01/30 04:33:58;;;;;;;19.00;12.10;;;;;;;4.04;100.00;100198.42;107350;1259;61240;-82
2023/01/30 04:36:27;;;;;;;20.10;13.10;;;;;;;4.04;100.00;100200.48;107240;1258;61356;-82
2023/01/30 04:38:57;;;;;;;20.20;12.70;;;;;;;4.05;100.00;100190.63;107146;1259;73506;-81
2023/01/30 04:41:27;;;;;;;16.30;10.70;;;;;;;4.05;100.00;100189.71;107015;1258;70504;-80
2023/01/30 04:44:27;;;;;;;;;;;;;;;;;;;;;
2023/01/30 04:46:54;;;;;;;14.70;9.70;;;;;;;4.10;100.00;100199.09;106949;1259;62611;-80
2023/01/30 04:49:21;;;;;;;14.40;9.60;;;;;;;4.12;100.00;100201.53;106930;1262;61171;-81
2023/01/30 04:51:57;;;;;;;16.20;10.30;;;;;;;4.14;100.00;100187.35;107156;1259;74635;-80
2023/01/30 04:54:25;;;;;;;12.90;8.50;;;;;;;4.16;100.00;100184.86;107431;1258;71485;-82
2023/01/30 04:56:51;;;;;;;13.00;8.40;;;;;;;4.16;100.00;100183.09;106774;1259;71642;-81
2023/01/30 04:59:55;;;;;;;11.20;8.30;;;;;;;4.18;100.00;100176.96;107005;1259;62200;-84
2023/01/30 05:02:22;;;;;;;12.10;8.20;;;;;;;4.19;100.00;100185.26;107100;1258;61771;-82
2023/01/30 05:04:52;;;;;;;11.90;7.80;;;;;;;4.20;100.00;100175.89;107159;1264;74500;-83
2023/01/30 05:07:32;;;;;;;14.10;8.50;;;;;;;4.20;100.00;100185.52;107097;1258;71884;-83
2023/01/30 05:10:01;;;;;;;14.60;9.00;;;;;;;4.21;100.00;100172.45;107229;1259;72463;-81
2023/01/30 05:12:29;;;;;;;11.30;7.40;;;;;;;4.22;100.00;100178.96;107016;1259;61276;-81
2023/01/30 05:14:56;;;;;;;13.50;8.80;;;;;;;4.25;100.00;100159.99;107038;1258;61163;-80
2023/01/30 05:17:23;;;;;;;11.60;7.70;;;;;;;4.27;100.00;100159.62;106893;1260;73620;-80
2023/01/30 05:20:25;;;;;;;;;;;;;;;;;;;;;
2023/01/30 05:23:35;;;;;;;12.20;8.20;;;;;;;4.30;100.00;100157.77;108275;1258;74006;-82
2023/01/30 05:26:08;;;;;;;11.20;7.40;;;;;;;4.32;100.00;100162.69;108844;1259;60062;-83
2023/01/30 05:28:57;;;;;;;10.80;7.50;;;;;;;4.34;100.00;100148.99;108753;1263;59005;-81
2023/01/30 05:31:24;;;;;;;13.50;8.60;;;;;;;4.37;100.00;100143.98;107431;1265;73519;-81
2023/01/30 05:33:52;;;;;;;11.10;7.80;;;;;;;4.41;100.00;100156.36;107048;1259;69709;-81
2023/01/30 05:36:21;;;;;;;12.60;8.50;;;;;;;4.44;100.00;100145.89;107115;1260;71859;-78
2023/01/30 05:38:48;;;;;;;11.50;7.60;;;;;;;4.48;100.00;100147.46;106623;1259;61372;-80
2023/01/30 05:41:21;;;;;;;10.80;7.10;;;;;;;4.47;100.00;100156.10;106616;1259;61251;-81
2023/01/30 05:43:49;;;;;;;10.30;7.10;;;;;;;4.49;100.00;100151.08;106967;1260;73445;-81
2023/01/30 05:46:16;;;;;;;12.50;7.90;;;;;;;4.49;100.00;100159.13;107252;1259;71964;-80
2023/01/30 05:48:43;;;;;;;9.50;6.40;;;;;;;4.50;100.00;100156.24;106489;1259;71996;-79
2023/01/30 05:51:23;;;;;;;9.10;6.60;;;;;;;4.51;100.00;100168.38;106568;1264;62056;-80
2023/01/30 05:53:50;;;;;;;10.00;6.60;;;;;;;4.54;100.00;100169.15;106816;1259;60054;-79
2023/01/30 05:56:17;;;;;;;9.90;6.90;;;;;;;4.55;100.00;100172.71;106694;1259;73054;-79
2023/01/30 05:58:52;;;;;;;8.50;5.90;;;;;;;4.57;100.00;100160.48;106657;1260;70049;-80
2023/01/30 06:01:20;;;;;;;8.90;6.10;;;;;;;4.60;100.00;100170.11;106421;1260;72556;-79
2023/01/30 06:03:48;;;;;;;9.40;6.20;;;;;;;4.61;100.00;100148.84;106676;1258;61377;-77
2023/01/30 06:06:15;;;;;;;8.70;5.90;;;;;;;4.63;100.00;100161.93;106486;1259;61743;-78
2023/01/30 06:08:45;;;;;;;7.90;5.30;;;;;;;4.66;100.00;100153.75;106475;1260;74372;-78
2023/01/30 06:11:19;;;;;;;6.80;4.10;;;;;;;4.69;100.00;100145.42;106460;1260;71482;-78
2023/01/30 06:13:54;;;;;;;7.40;4.80;;;;;;;4.71;100.00;100130.50;106447;1259;74101;-80
2023/01/30 06:16:43;;;;;;;9.60;5.60;;;;;;;4.75;100.00;100142.56;106423;1259;61266;-78
2023/01/30 06:19:53;;;;;;;8.20;5.30;;;;;;;4.78;100.00;100152.95;106718;1259;61251;-77
2023/01/30 06:22:33;;;;;;;7.30;4.30;;;;;;;4.81;100.00;100146.86;106975;1259;76146;-79
2023/01/30 06:25:03;;;;;;;8.20;4.50;;;;;;;4.82;100.00;100147.26;106219;1259;69789;-78
2023/01/30 06:27:53;;;;;;;7.20;3.80;;;;;;;4.84;100.00;100136.77;105866;1262;70188;-79
2023/01/30 06:30:24;;;;;;;7.20;3.90;;;;;;;4.85;100.00;100134.50;106056;1259;61251;-78
2023/01/30 06:33:01;;;;;;;7.80;4.10;;;;;;;4.85;100.00;100138.21;105834;1264;61352;-78
2023/01/30 06:35:49;;;;;;;7.30;3.90;;;;;;;4.85;100.00;100155.39;106337;1258;73448;-79
2023/01/30 06:38:19;;;;;;;7.00;4.30;;;;;;;4.86;100.00;100148.96;106731;1258;69787;-78
2023/01/30 06:40:48;;;;;;;6.80;4.40;;;;;;;4.88;100.00;100155.64;106045;1260;72904;-78
2023/01/30 06:43:20;;;;;;;7.30;4.70;;;;;;;4.90;100.00;100171.23;106424;1265;61228;-79
2023/01/30 06:46:01;;;;;;;8.80;4.40;;;;;;;4.94;100.00;100180.17;106131;1259;61277;-77
2023/01/30 06:48:31;;;;;;;6.40;3.00;;;;;;;4.98;100.00;100180.73;106200;1259;73171;-77
2023/01/30 06:51:06;;;;;;;8.00;3.50;;;;;;;5.07;98.62;100184.86;106114;1258;70882;-77
2023/01/30 06:53:36;;;;;;;7.20;4.00;;;;;;;5.13;97.97;100190.19;106090;1258;71458;-78
2023/01/30 06:56:06;;;;;;;6.50;3.40;;;;;;;5.16;97.63;100190.22;106414;1262;61848;-78
2023/01/30 06:58:36;;;;;;;7.30;3.80;;;;;;;5.21;97.91;100187.56;105892;1259;62337;-78
2023/01/30 07:01:13;;;;;;;8.80;4.40;;;;;;;5.21;97.96;100188.15;106638;1259;74709;-79
2023/01/30 07:03:47;;;;;;;8.10;4.40;;;;;;;5.24;98.32;100189.10;106040;1261;71322;-77
2023/01/30 07:06:14;;;;;;;9.70;4.30;;;;;;;5.23;98.22;100194.39;106183;1264;71247;-79
2023/01/30 07:08:43;;;;;;;7.50;4.30;;;;;;;5.23;98.21;100192.81;106312;1260;61254;-80
2023/01/30 07:11:10;;;;;;;9.50;4.00;;;;;;;5.24;97.80;100191.56;106362;1259;61312;-79
2023/01/30 07:13:37;;;;;;;8.20;4.20;;;;;;;5.22;97.53;100182.48;106481;1259;74700;-79
2023/01/30 07:16:04;;;;;;;11.70;5.30;;;;;;;5.17;97.06;100192.80;106629;1260;70964;-78
2023/01/30 07:18:34;;;;;;;11.70;4.10;;;;;;;5.16;96.60;100198.33;106197;1260;72576;-78
2023/01/30 07:21:01;;;;;;;7.30;3.10;;;;;;;5.17;96.19;100194.89;106376;1259;61189;-78
2023/01/30 07:23:28;;;;;;;9.30;3.60;;;;;;;5.13;95.90;100191.70;106319;1263;61365;-77
2023/01/30 07:26:05;;;;;;;10.70;3.70;;;;;;;5.13;96.27;100195.09;106285;1258;76012;-79
2023/01/30 07:28:32;;;;;;;12.40;5.30;;;;;;;5.13;96.78;100201.86;106641;1260;69659;-80
2023/01/30 07:30:59;;;;;;;9.40;3.80;;;;;;;5.12;96.46;100199.23;106400;1260;72548;-77
2023/01/30 07:33:26;;;;;;;10.20;3.20;;;;;;;5.11;96.09;100189.00;106529;1262;62767;-78
2023/01/30 07:35:54;;;;;;;10.40;2.80;;;;;;;5.10;95.27;100189.98;106400;1259;61164;-77
2023/01/30 07:38:21;;;;;;;8.90;3.10;;;;;;;5.07;94.20;100183.54;105862;1266;74505;-77
2023/01/30 07:40:48;;;;;;;7.90;2.70;;;;;;;5.07;94.12;100185.63;106189;1262;71666;-77
2023/01/30 07:43:15;;;;;;;9.30;2.90;;;;;;;5.05;93.68;100180.77;105948;1259;71765;-77
2023/01/30 07:45:46;;;;;;;6.90;3.30;;;;;;;5.03;93.01;100185.00;106033;1261;61952;-78
2023/01/30 07:48:22;;;;;;;9.70;2.80;;;;;;;5.02;92.41;100171.30;106300;1260;61240;-77
2023/01/30 07:50:49;;;;;;;11.40;2.80;;;;;;;5.04;91.90;100182.83;106618;1262;75102;-78
2023/01/30 07:53:19;;;;;;;12.30;2.40;;;;;;;5.05;91.46;100188.30;106345;1262;70654;-78
2023/01/30 07:55:49;;;;;;;10.60;2.40;;;;;;;5.06;90.65;100188.20;106998;1259;73631;-80
2023/01/30 07:58:18;;;;;;;10.60;2.20;;;;;;;5.11;89.99;100179.37;107958;1259;61177;-81
2023/01/30 08:00:45;;;;;;;12.20;2.40;;;;;;;5.12;89.69;100188.17;108165;1259;60816;-81
2023/01/30 08:03:14;;;;;;;10.40;2.90;;;;;;;5.13;89.91;100183.13;108159;1260;74660;-80
2023/01/30 08:05:41;;;;;;;11.90;2.20;;;;;;;5.14;89.71;100182.71;107131;1260;71901;-81
2023/01/30 08:08:07;;;;;;;12.80;4.00;;;;;;;5.14;87.81;100177.94;107352;1259;71461;-80
2023/01/30 08:10:34;;;;;;;11.10;3.30;;;;;;;5.18;86.97;100185.82;106858;1259;61254;-78
2023/01/30 08:13:10;;;;;;;12.90;4.70;;;;;;;5.27;86.88;100201.93;107003;1260;61238;-76
2023/01/30 08:15:37;;;;;;;9.50;1.60;;;;;;;5.36;85.95;100207.23;106324;1265;73585;-79
2023/01/30 08:18:06;;;;;;;9.50;2.80;;;;;;;5.43;85.35;100218.27;106379;1263;68828;-77
2023/01/30 08:20:32;;;;;;;9.70;2.00;;;;;;;5.47;84.46;100224.09;106520;1258;72660;-77
2023/01/30 08:23:01;;;;;;;11.40;2.60;;;;;;;5.52;84.35;100228.52;106750;1260;61294;-76
2023/01/30 08:25:28;;;;;;;9.80;2.00;;;;;;;5.57;83.92;100240.04;106056;1259;61257;-75
2023/01/30 08:27:56;;;;;;;9.10;2.10;;;;;;;5.56;83.25;100244.83;106462;1264;74100;-76
2023/01/30 08:30:24;;;;;;;9.40;1.90;;;;;;;5.59;83.43;100233.08;106217;1258;70920;-76
2023/01/30 08:32:51;;;;;;;11.50;2.20;;;;;;;5.60;83.36;100215.34;106646;1259;72402;-77
2023/01/30 08:35:17;;;;;;;9.40;1.70;;;;;;;5.58;83.06;100229.91;106314;1262;62051;-75
2023/01/30 08:37:45;;;;;;;10.00;2.10;;;;;;;5.53;83.15;100220.88;106339;1259;61256;-74
2023/01/30 08:40:12;;;;;;;9.30;2.20;;;;;;;5.55;83.47;100222.46;106483;1262;74760;-75
2023/01/30 08:42:40;;;;;;;10.20;2.30;;;;;;;5.55;83.09;100228.94;106381;1260;71295;-76
2023/01/30 08:45:07;;;;;;;11.50;2.80;;;;;;;5.54;82.41;100237.13;106362;1261;72541;-77
2023/01/30 08:47:34;;;;;;;12.10;2.50;;;;;;;5.59;82.76;100228.15;106485;1258;62302;-77
2023/01/30 08:50:01;;;;;;;8.90;2.20;;;;;;;5.62;81.79;100227.15;106363;1260;61405;-78
2023/01/30 08:52:29;;;;;;;12.70;2.50;;;;;;;5.67;81.93;100218.08;106974;1259;73200;-78
2023/01/30 08:54:56;;;;;;;9.50;2.10;;;;;;;5.69;81.90;100236.34;106031;1264;69787;-77
2023/01/30 08:57:23;;;;;;;9.30;2.50;;;;;;;5.70;81.94;100219.70;106356;1260;71498;-77
2023/01/30 08:59:51;;;;;;;13.00;2.40;;;;;;;5.72;82.14;100214.09;106273;1260;61273;-78
2023/01/30 09:02:17;;;;;;;10.40;2.60;;;;;;;5.70;82.38;100216.21;106399;1262;61247;-76
2023/01/30 09:04:44;;;;;;;10.70;2.40;;;;;;;5.69;82.91;100222.26;106751;1260;72835;-76
2023/01/30 09:07:20;;;;;;;10.40;2.10;;;;;;;5.72;83.17;100241.82;106307;1262;70857;-77
2023/01/30 09:09:47;;;;;;;9.20;2.40;;;;;;;5.68;83.14;100244.30;106535;1260;71712;-77
2023/01/30 09:12:15;;;;;;;10.10;2.20;;;;;;;5.68;82.71;100243.93;107057;1260;61304;-76
2023/01/30 09:14:42;;;;;;;12.50;2.30;;;;;;;5.71;82.95;100233.82;106398;1259;61343;-77
2023/01/30 09:17:10;;;;;;;13.40;3.20;;;;;;;5.75;82.61;100225.88;106746;1259;74442;-77
2023/01/30 09:19:37;;;;;;;9.10;2.30;;;;;;;5.83;82.53;100214.02;106482;1259;71266;-78
2023/01/30 09:22:06;;;;;;;13.80;2.30;;;;;;;5.92;82.45;100220.01;106895;1260;72705;-78
2023/01/30 09:24:33;;;;;;;9.30;2.00;;;;;;;5.96;81.60;100218.38;106570;1259;61324;-78
2023/01/30 09:27:00;;;;;;;12.70;2.50;;;;;;;6.01;81.08;100215.23;106694;1262;61200;-78
2023/01/30 09:29:27;;;;;;;11.50;2.50;;;;;;;6.03;80.32;100225.48;106799;1262;72909;-78
2023/01/30 09:31:55;;;;;;;10.90;2.70;;;;;;;6.07;80.38;100216.36;106820;1261;71493;-80
2023/01/30 09:34:27;;;;;;;10.40;2.40;;;;;;;6.05;80.56;100223.16;106616;1263;72394;-79
2023/01/30 09:36:55;;;;;;;11.40;2.10;;;;;;;5.96;82.18;100218.50;106257;1260;61438;-78
2023/01/30 09:39:22;;;;;;;15.40;2.80;;;;;;;5.82;83.66;100227.60;106104;1261;61349;-77
2023/01/30 09:42:04;;;;;;;11.70;2.70;;;;;;;5.73;83.61;100223.75;106799;1262;74397;-77
2023/01/30 09:45:00;;;;;;;13.10;2.40;;;;;;;5.75;83.24;100226.23;106302;1263;70953;-77
2023/01/30 09:47:44;;;;;;;11.10;2.20;;;;;;;5.81;81.91;100229.54;106669;1262;73032;-78
2023/01/30 09:50:24;;;;;;;13.10;2.70;;;;;;;5.87;81.67;100230.50;106392;1260;61241;-79
2023/01/30 09:53:00;;;;;;;15.00;2.90;;;;;;;5.94;80.59;100221.34;106003;1264;61313;-78
2023/01/30 09:55:31;;;;;;;13.70;2.60;;;;;;;5.99;80.35;100230.13;106065;1259;74804;-77
2023/01/30 09:57:59;;;;;;;13.30;2.20;;;;;;;6.04;79.16;100219.27;106679;1262;69924;-77
2023/01/30 10:00:41;;;;;;;9.80;2.40;;;;;;;6.06;78.46;100242.75;105874;1258;72580;-78
2023/01/30 10:03:07;;;;;;;11.60;2.60;;;;;;;6.10;77.71;100233.61;105997;1264;61265;-79
2023/01/30 10:05:45;;;;;;;11.40;2.10;;;;;;;6.17;77.33;100231.84;106385;1259;61565;-78
2023/01/30 10:08:30;;;;;;;15.20;2.40;;;;;;;6.25;76.10;100226.80;106178;1263;74473;-78
2023/01/30 10:11:16;;;;;;;10.60;2.40;;;;;;;6.33;76.36;100233.69;106195;1261;69743;-79
2023/01/30 10:13:48;;;;;;;12.00;2.40;;;;;;;6.39;76.28;100223.83;106096;1260;73818;-78
2023/01/30 10:16:33;;;;;;;11.40;2.50;;;;;;;6.47;75.00;100220.30;106787;1262;61379;-78
2023/01/30 10:19:38;;;;;;;12.10;2.70;;;;;;;6.45;75.30;100231.29;108648;1259;59448;-79
2023/01/30 10:22:30;;;;;;;11.70;2.00;;;;;;;6.46;75.76;100236.79;108790;1259;73242;-77
2023/01/30 10:25:02;;;;;;;12.80;2.50;;;;;;;6.39;76.08;100232.63;108789;1259;69010;-78
2023/01/30 10:27:31;;;;;;;10.10;2.50;;;;;;;6.42;76.06;100215.90;108085;1262;73029;-79
2023/01/30 10:30:04;;;;;;;12.20;2.40;;;;;;;6.49;75.79;100229.38;106095;1261;62704;-78
2023/01/30 10:32:56;;;;;;;9.80;2.30;;;;;;;6.61;74.74;100225.73;106065;1266;61274;-77
2023/01/30 10:35:29;;;;;;;12.80;2.50;;;;;;;6.74;74.21;100219.97;106084;1259;73292;-78
2023/01/30 10:38:04;;;;;;;11.20;2.20;;;;;;;6.87;73.59;100207.91;106512;1261;69738;-78
2023/01/30 10:40:40;;;;;;;9.90;2.20;;;;;;;6.93;74.00;100205.80;106383;1261;72752;-77
2023/01/30 10:43:26;;;;;;;10.80;2.40;;;;;;;6.97;73.05;100206.63;106133;1263;61369;-77
2023/01/30 10:46:13;;;;;;;9.90;2.80;;;;;;;7.00;73.02;100198.95;106192;1265;60632;-78
2023/01/30 10:49:02;;;;;;;8.90;1.90;;;;;;;7.05;72.80;100197.73;105970;1260;74700;-76
2023/01/30 10:51:37;;;;;;;8.60;2.30;;;;;;;7.13;73.08;100197.15;106265;1262;71398;-78
2023/01/30 10:54:19;;;;;;;11.60;2.20;;;;;;;7.31;72.89;100184.11;105883;1262;72751;-77
2023/01/30 10:56:52;;;;;;;11.60;2.50;;;;;;;7.34;71.55;100196.19;105750;1265;61251;-80
2023/01/30 10:59:23;;;;;;;11.80;2.70;;;;;;;7.30;71.40;100190.18;106342;1259;61309;-76
2023/01/30 11:01:58;;;;;;;17.30;3.40;;;;;;;7.29;71.52;100187.70;106318;1264;74753;-79
2023/01/30 11:04:57;;;;;;;12.60;2.60;;;;;;;7.36;70.64;100181.17;106096;1263;70995;-76
2023/01/30 11:07:28;;;;;;;11.00;2.70;;;;;;;7.43;70.33;100188.55;106034;1260;74013;-77
2023/01/30 11:09:57;;;;;;;9.90;2.30;;;;;;;7.30;70.41;100190.02;105934;1261;62888;-77
2023/01/30 11:12:24;;;;;;;12.10;2.30;;;;;;;7.19;71.55;100183.33;106377;1260;61612;-77
2023/01/30 11:15:00;;;;;;;10.30;2.10;;;;;;;7.07;74.18;100178.45;106154;1261;76040;-77
2023/01/30 11:17:37;;;;;;;10.70;2.10;;;;;;;6.74;77.14;100205.92;106559;1264;70898;-79
2023/01/30 11:20:19;;;;;;;13.10;2.60;;;;;;;6.30;80.21;100198.70;106435;1260;71185;-78
2023/01/30 11:22:50;;;;;;;11.90;2.80;;;;;;;6.29;79.48;100225.53;105855;1261;61359;-78
2023/01/30 11:25:20;;;;;;;11.80;2.30;;;;;;;6.26;79.90;100207.18;106115;1264;61349;-78
2023/01/30 11:27:54;;;;;;;9.10;2.00;;;;;;;6.18;80.36;100201.91;106244;1265;74839;-79
2023/01/30 11:30:27;;;;;;;13.60;2.60;;;;;;;6.15;80.68;100188.88;105967;1261;71849;-78
2023/01/30 11:33:23;;;;;;;9.90;1.90;;;;;;;6.10;81.49;100206.36;106171;1263;70940;-77
2023/01/30 11:36:27;;;;;;;15.80;3.00;;;;;;;5.84;82.20;100198.87;108433;1260;60708;-79
2023/01/30 11:39:03;;;;;;;12.60;2.50;;;;;;;5.46;86.43;100199.21;107997;1262;59404;-77
2023/01/30 11:41:30;;;;;;;9.80;2.80;;;;;;;5.17;89.07;100196.73;106116;1263;74601;-78
2023/01/30 11:44:03;;;;;;;12.40;2.60;;;;;;;5.08;90.78;100172.25;106890;1263;70832;-77
2023/01/30 11:46:34;;;;;;;10.90;2.40;;;;;;;5.05;90.43;100173.94;106220;1263;71262;-77
2023/01/30 11:49:05;;;;;;;12.30;2.90;;;;;;;5.11;90.09;100160.58;105716;1267;60522;-77